Mildmay, Canada
Current Conditions -  °F | °C
As of 10:00 AM on Friday 24 Oct 2014 (Local Time) from CYVV Reporting Station
Broken Clouds Broken Clouds  
Wind Chill: 41°   Ceiling: 25000
Heat Index: 45°   Visibility: 15mi
Dew Point: 43°   Wind: 7mph
Humidity: 93%   Direction: 210°SSW
Pressure: 30.03"   Gusts: NA
Location:  44.03°N, 81.12°W
Report Text: CYVV 241400Z 21006KT 15SM FEW040 SCT090 BKN250 07/06 A3003 RMKSC2AC2CI2 SLP179
Loading
Personal Weather Stations






























Interactive Weather Map
Tropical Storm Tracking
New forecast layout! Learn more

10-Day Weather Forecast

Advertisements
Track Severe Weather on mobile